Time;durP1;ratioP1;P1;durP2;ratioP2;P2;SDS_P1;SDS_P2;PMS_P1;PMS_P2;Temp;Humidity;BMP_temperature;BMP_pressure;BME280_temperature;BME280_humidity;BME280_pressure;Samples;Min_cycle;Max_cycle;Signal;HPM_P1;HPM_P2
2022/11/29 00:04:35;;;;;;;40.15;11.27;;;;;;;;;;10509594;28;20574;-75
2022/11/29 00:09:39;;;;;;;24.88;8.77;;;;;;;;;;10509281;28;20036;-74
2022/11/29 00:14:42;;;;;;;23.27;7.93;;;;;;;;;;10509386;28;20523;-75
2022/11/29 00:19:45;;;;;;;35.30;12.40;;;;;;;;;;10504934;28;20493;-74
2022/11/29 00:24:51;;;;;;;28.60;10.45;;;;;;;;;;10519820;28;20043;-75
2022/11/29 00:29:54;;;;;;;28.88;9.40;;;;;;;;;;10489886;28;20040;-74
2022/11/29 00:34:56;;;;;;;30.38;11.43;;;;;;;;;;10512878;28;20053;-74
2022/11/29 00:40:03;;;;;;;19.85;8.27;;;;;;;;;;10518037;28;20032;-74
2022/11/29 00:45:06;;;;;;;18.25;7.20;;;;;;;;;;10524081;28;20226;-75
2022/11/29 00:50:09;;;;;;;15.38;6.07;;;;;;;;;;10520864;28;20036;-75
2022/11/29 00:55:13;;;;;;;11.75;4.80;;;;;;;;;;10522394;28;20461;-74
2022/11/29 01:00:16;;;;;;;28.92;8.80;;;;;;;;;;10511653;28;20056;-75
2022/11/29 01:05:19;;;;;;;20.48;6.40;;;;;;;;;;10521967;28;20096;-75
2022/11/29 01:10:23;;;;;;;13.20;5.45;;;;;;;;;;10511642;28;21395;-75
2022/11/29 01:15:26;;;;;;;13.80;5.40;;;;;;;;;;10515978;28;20044;-76
2022/11/29 01:20:28;;;;;;;11.07;5.57;;;;;;;;;;10515523;28;20579;-75
2022/11/29 01:25:33;;;;;;;6.33;2.77;;;;;;;;;;10521702;28;20404;-76
2022/11/29 01:30:37;;;;;;;8.77;3.45;;;;;;;;;;10518464;28;20044;-76
2022/11/29 01:35:40;;;;;;;9.68;4.25;;;;;;;;;;10523804;28;20085;-76
2022/11/29 01:41:00;;;;;;;13.48;5.68;;;;;;;;;;10520568;28;20066;-76
2022/11/29 01:46:04;;;;;;;10.48;4.65;;;;;;;;;;10509767;28;20165;-75
2022/11/29 01:51:07;;;;;;;;;;;;;;;;;;10511943;28;20068;-76
2022/11/29 01:56:13;;;;;;;9.45;4.28;;;;;;;;;;10523030;28;19962;-75
2022/11/29 02:01:16;;;;;;;9.80;4.45;;;;;;;;;;10511306;28;20047;-74
2022/11/29 02:06:18;;;;;;;12.18;4.60;;;;;;;;;;10515566;28;20032;-75
2022/11/29 02:11:42;;;;;;;9.18;4.30;;;;;;;;;;10509090;28;20041;-75
2022/11/29 02:16:50;;;;;;;7.20;3.90;;;;;;;;;;10500832;28;20420;-74
2022/11/29 02:22:04;;;;;;;9.52;4.30;;;;;;;;;;10515150;28;20742;-76
2022/11/29 02:27:13;;;;;;;5.18;2.20;;;;;;;;;;10519214;28;20044;-76
2022/11/29 02:32:40;;;;;;;8.93;3.60;;;;;;;;;;10516837;28;20040;-75
2022/11/29 02:38:00;;;;;;;6.40;3.35;;;;;;;;;;10495478;28;20067;-75
2022/11/29 02:43:16;;;;;;;2.63;1.75;;;;;;;;;;10507312;28;20206;-76
2022/11/29 02:48:29;;;;;;;10.93;4.13;;;;;;;;;;10512134;28;20555;-75
2022/11/29 02:53:33;;;;;;;12.90;4.90;;;;;;;;;;10514343;28;20036;-75
2022/11/29 02:58:45;;;;;;;3.47;1.73;;;;;;;;;;10519576;28;20191;-76
2022/11/29 03:03:52;;;;;;;10.23;4.47;;;;;;;;;;10509009;28;20048;-75
2022/11/29 03:08:59;;;;;;;7.55;3.90;;;;;;;;;;10516705;28;20047;-75
2022/11/29 03:14:10;;;;;;;7.75;3.63;;;;;;;;;;10515954;28;20037;-74
2022/11/29 03:19:46;;;;;;;8.73;4.22;;;;;;;;;;10522283;28;20056;-74
2022/11/29 03:24:52;;;;;;;10.68;4.80;;;;;;;;;;10339992;28;20527;-74
2022/11/29 03:29:57;;;;;;;8.82;4.15;;;;;;;;;;10480979;28;20051;-75
2022/11/29 03:35:04;;;;;;;7.45;3.90;;;;;;;;;;10513380;28;20039;-75
2022/11/29 03:40:07;;;;;;;9.15;4.43;;;;;;;;;;10509866;28;20036;-75
2022/11/29 03:45:17;;;;;;;5.65;3.08;;;;;;;;;;10516342;28;20044;-75
2022/11/29 03:50:23;;;;;;;2.70;1.65;;;;;;;;;;10514458;28;20048;-74
2022/11/29 03:55:31;;;;;;;8.55;3.72;;;;;;;;;;10508687;28;20039;-74
2022/11/29 04:00:42;;;;;;;7.38;3.25;;;;;;;;;;10516625;28;20052;-75
2022/11/29 04:05:55;;;;;;;7.05;3.30;;;;;;;;;;10510371;28;20032;-74
2022/11/29 04:11:07;;;;;;;7.63;3.47;;;;;;;;;;10517140;28;20051;-75
2022/11/29 04:16:17;;;;;;;8.82;4.03;;;;;;;;;;10512353;28;20028;-75
2022/11/29 04:21:31;;;;;;;4.20;2.20;;;;;;;;;;10515217;28;20136;-77
2022/11/29 04:26:59;;;;;;;6.53;3.50;;;;;;;;;;10493727;28;20047;-76
2022/11/29 04:32:21;;;;;;;6.95;3.60;;;;;;;;;;10511458;28;20044;-75
2022/11/29 04:37:37;;;;;;;6.28;2.53;;;;;;;;;;10509468;28;20036;-76
2022/11/29 04:42:46;;;;;;;5.10;2.15;;;;;;;;;;10503801;28;20040;-75
2022/11/29 04:47:55;;;;;;;3.50;1.83;;;;;;;;;;10513813;28;20040;-75
2022/11/29 04:53:13;;;;;;;3.22;1.65;;;;;;;;;;10513847;28;20037;-76
2022/11/29 04:58:19;;;;;;;7.90;3.58;;;;;;;;;;10491552;28;20098;-75
2022/11/29 05:03:31;;;;;;;4.43;2.78;;;;;;;;;;10508116;28;20471;-76
2022/11/29 05:08:38;;;;;;;4.57;2.47;;;;;;;;;;10509886;28;20036;-75
2022/11/29 05:13:45;;;;;;;4.20;2.17;;;;;;;;;;10508158;28;20033;-75
2022/11/29 05:19:08;;;;;;;5.20;2.90;;;;;;;;;;10506278;28;20043;-76
2022/11/29 05:24:17;;;;;;;4.83;2.00;;;;;;;;;;10474855;28;20048;-74
2022/11/29 05:29:24;;;;;;;3.28;1.70;;;;;;;;;;10508236;28;20044;-76
2022/11/29 05:34:30;;;;;;;4.82;2.47;;;;;;;;;;10521623;28;20105;-76
2022/11/29 05:39:43;;;;;;;4.60;1.83;;;;;;;;;;10523521;28;20040;-76
2022/11/29 05:44:47;;;;;;;4.47;2.30;;;;;;;;;;10513539;28;20519;-76
2022/11/29 05:49:57;;;;;;;3.72;2.00;;;;;;;;;;10525652;28;20048;-76
2022/11/29 05:55:10;;;;;;;4.88;2.03;;;;;;;;;;10516713;28;20036;-75
2022/11/29 06:00:13;;;;;;;4.78;1.98;;;;;;;;;;10518889;28;20074;-76
2022/11/29 06:05:21;;;;;;;2.83;1.50;;;;;;;;;;10495621;28;20113;-76
2022/11/29 06:10:28;;;;;;;1.33;0.85;;;;;;;;;;10517180;28;20044;-76
2022/11/29 06:15:48;;;;;;;3.80;2.20;;;;;;;;;;10516240;28;20071;-76
2022/11/29 06:21:02;;;;;;;3.13;1.65;;;;;;;;;;10516591;28;20494;-75
2022/11/29 06:26:16;;;;;;;3.23;1.50;;;;;;;;;;10514449;28;20114;-76
2022/11/29 06:31:21;;;;;;;4.70;2.35;;;;;;;;;;10510975;28;20074;-76
2022/11/29 06:36:26;;;;;;;5.30;1.92;;;;;;;;;;10508401;28;20045;-76
2022/11/29 06:41:34;;;;;;;5.03;1.92;;;;;;;;;;10515677;28;20040;-75
2022/11/29 06:46:43;;;;;;;3.08;1.88;;;;;;;;;;10526082;28;20035;-76
2022/11/29 06:51:52;;;;;;;3.88;1.90;;;;;;;;;;10522651;28;20508;-75
2022/11/29 06:57:00;;;;;;;3.95;2.15;;;;;;;;;;10522590;28;20032;-75
2022/11/29 07:02:10;;;;;;;4.43;2.15;;;;;;;;;;10512357;28;20052;-76
2022/11/29 07:07:23;;;;;;;2.60;1.55;;;;;;;;;;10502086;28;20122;-77
2022/11/29 07:12:28;;;;;;;3.20;1.50;;;;;;;;;;10514833;28;20048;-77
2022/11/29 07:17:32;;;;;;;2.53;1.45;;;;;;;;;;10518724;28;20048;-77
2022/11/29 07:22:46;;;;;;;4.13;1.92;;;;;;;;;;10509780;28;20481;-75
2022/11/29 07:27:57;;;;;;;1.80;1.58;;;;;;;;;;10511853;28;20059;-75
2022/11/29 07:33:04;;;;;;;7.25;3.40;;;;;;;;;;10512859;28;20041;-76
2022/11/29 07:38:09;;;;;;;7.95;3.17;;;;;;;;;;10508068;28;20381;-75
2022/11/29 07:43:18;;;;;;;24.38;5.88;;;;;;;;;;10513387;28;20036;-75
2022/11/29 07:48:21;;;;;;;40.80;9.10;;;;;;;;;;10492314;28;20477;-76
2022/11/29 07:53:24;;;;;;;23.05;5.20;;;;;;;;;;10489243;28;20113;-75
2022/11/29 07:58:32;;;;;;;33.42;6.63;;;;;;;;;;10502573;28;20504;-75
2022/11/29 08:03:34;;;;;;;17.10;3.55;;;;;;;;;;10508016;28;20055;-75
2022/11/29 08:08:37;;;;;;;8.85;3.65;;;;;;;;;;10503599;28;20558;-74
2022/11/29 08:13:47;;;;;;;10.52;3.35;;;;;;;;;;10486726;28;20055;-74
2022/11/29 08:18:59;;;;;;;10.82;5.93;;;;;;;;;;10506883;28;20233;-76
2022/11/29 08:24:03;;;;;;;17.10;7.30;;;;;;;;;;10496332;28;20129;-76
2022/11/29 08:29:08;;;;;;;7.63;3.13;;;;;;;;;;10502089;28;20056;-75
2022/11/29 08:34:11;;;;;;;4.30;1.77;;;;;;;;;;10509032;28;20043;-75
2022/11/29 08:39:14;;;;;;;3.05;1.33;;;;;;;;;;10484065;28;20036;-76
2022/11/29 08:44:18;;;;;;;6.85;2.53;;;;;;;;;;10498179;28;20386;-76
2022/11/29 08:49:22;;;;;;;6.00;3.60;;;;;;;;;;10513465;28;20052;-75
2022/11/29 08:54:25;;;;;;;2.95;1.55;;;;;;;;;;10514263;28;20047;-75
2022/11/29 08:59:29;;;;;;;8.43;2.88;;;;;;;;;;10516974;28;20052;-76
2022/11/29 09:04:31;;;;;;;1.75;1.02;;;;;;;;;;10512860;28;20036;-76
2022/11/29 09:09:34;;;;;;;3.10;1.77;;;;;;;;;;10509684;28;20093;-75
2022/11/29 09:14:37;;;;;;;9.45;4.22;;;;;;;;;;10511707;28;20036;-76
2022/11/29 09:19:40;;;;;;;8.52;3.35;;;;;;;;;;10517301;28;20122;-75
2022/11/29 09:24:45;;;;;;;10.15;4.35;;;;;;;;;;10492999;28;20448;-76
2022/11/29 09:29:49;;;;;;;5.60;2.53;;;;;;;;;;10500333;28;20052;-76
2022/11/29 09:34:51;;;;;;;6.68;3.03;;;;;;;;;;10505041;28;20036;-75
2022/11/29 09:39:54;;;;;;;5.18;2.53;;;;;;;;;;10498761;28;20044;-76
2022/11/29 09:45:02;;;;;;;7.35;3.38;;;;;;;;;;10508285;28;20130;-74
2022/11/29 09:50:16;;;;;;;5.20;2.85;;;;;;;;;;10502865;28;20051;-75
2022/11/29 09:55:38;;;;;;;12.30;3.63;;;;;;;;;;10507414;28;20036;-75
2022/11/29 10:00:46;;;;;;;4.00;1.95;;;;;;;;;;10509177;28;20062;-76
2022/11/29 10:05:51;;;;;;;4.90;2.08;;;;;;;;;;10505782;28;20041;-76
2022/11/29 10:10:57;;;;;;;10.27;3.83;;;;;;;;;;10504632;28;20044;-75
2022/11/29 10:16:04;;;;;;;8.20;1.77;;;;;;;;;;10509796;28;20207;-77
2022/11/29 10:21:12;;;;;;;3.78;1.85;;;;;;;;;;10506584;28;20464;-76
2022/11/29 10:26:15;;;;;;;7.10;3.53;;;;;;;;;;10512190;28;20059;-76
2022/11/29 10:31:23;;;;;;;1.75;1.35;;;;;;;;;;10503211;28;20028;-75
2022/11/29 10:36:29;;;;;;;5.10;2.35;;;;;;;;;;10489744;28;20040;-75
2022/11/29 10:41:32;;;;;;;3.05;1.45;;;;;;;;;;10506036;28;20048;-76
2022/11/29 10:46:36;;;;;;;1.83;1.23;;;;;;;;;;10505254;28;20072;-74
2022/11/29 10:51:39;;;;;;;12.00;3.53;;;;;;;;;;10513179;28;20155;-75
2022/11/29 10:56:42;;;;;;;4.68;2.38;;;;;;;;;;10507833;28;20040;-75
2022/11/29 11:01:46;;;;;;;3.50;1.50;;;;;;;;;;10517884;28;20509;-75
2022/11/29 11:06:50;;;;;;;2.88;1.75;;;;;;;;;;10503877;28;20043;-75
2022/11/29 11:11:53;;;;;;;3.47;1.75;;;;;;;;;;10508625;28;20363;-74
2022/11/29 11:17:13;;;;;;;5.22;2.40;;;;;;;;;;10506656;28;20051;-74
2022/11/29 11:22:20;;;;;;;9.88;2.38;;;;;;;;;;10505100;28;20055;-75
2022/11/29 11:27:28;;;;;;;7.20;2.72;;;;;;;;;;10509725;28;20303;-75
2022/11/29 11:32:32;;;;;;;7.00;2.53;;;;;;;;;;10512782;28;20309;-75
2022/11/29 11:37:35;;;;;;;2.55;1.10;;;;;;;;;;10499307;28;20041;-74
2022/11/29 11:42:41;;;;;;;1.65;1.05;;;;;;;;;;10503522;28;20080;-75
2022/11/29 11:47:47;;;;;;;2.83;1.73;;;;;;;;;;10505829;28;20078;-75
2022/11/29 11:52:52;;;;;;;1.35;1.02;;;;;;;;;;10519103;28;20037;-74
2022/11/29 11:57:59;;;;;;;1.73;1.00;;;;;;;;;;10504911;28;20036;-75
2022/11/29 12:03:23;;;;;;;2.95;1.30;;;;;;;;;;10503489;28;20100;-76
2022/11/29 12:08:27;;;;;;;5.50;2.33;;;;;;;;;;10504351;28;20032;-75
2022/11/29 12:13:31;;;;;;;4.30;2.03;;;;;;;;;;10503704;28;20052;-75
2022/11/29 12:18:38;;;;;;;2.40;1.77;;;;;;;;;;10503034;28;20040;-75
2022/11/29 12:23:44;;;;;;;8.50;2.67;;;;;;;;;;10509042;28;20044;-76
2022/11/29 12:28:49;;;;;;;3.65;2.10;;;;;;;;;;10499076;28;20038;-75
2022/11/29 12:33:57;;;;;;;6.50;3.10;;;;;;;;;;10510907;28;20040;-76
2022/11/29 12:39:03;;;;;;;5.13;2.17;;;;;;;;;;10515994;28;20040;-75
2022/11/29 12:44:14;;;;;;;5.32;2.15;;;;;;;;;;10519476;28;20681;-74
2022/11/29 12:49:24;;;;;;;4.75;2.40;;;;;;;;;;10520910;28;20040;-75
2022/11/29 12:54:31;;;;;;;3.65;2.00;;;;;;;;;;10518712;28;20062;-74
2022/11/29 12:59:55;;;;;;;4.88;2.45;;;;;;;;;;10517234;28;20036;-75
2022/11/29 13:04:58;;;;;;;;;;;;;;;;;;10510218;28;20040;-75
2022/11/29 13:10:09;;;;;;;4.82;2.33;;;;;;;;;;10515969;28;19923;-74
2022/11/29 13:15:20;;;;;;;5.32;2.60;;;;;;;;;;10513054;28;20047;-75
2022/11/29 13:20:28;;;;;;;5.40;2.15;;;;;;;;;;10515252;28;20055;-74
2022/11/29 13:25:35;;;;;;;4.93;2.50;;;;;;;;;;10516094;28;20032;-75
2022/11/29 13:30:38;;;;;;;5.20;2.72;;;;;;;;;;10516825;28;20809;-75
2022/11/29 13:35:43;;;;;;;10.35;3.83;;;;;;;;;;10494940;28;20058;-75
2022/11/29 13:40:52;;;;;;;7.07;2.92;;;;;;;;;;10513906;28;20040;-74
2022/11/29 13:46:00;;;;;;;6.18;2.97;;;;;;;;;;10508785;28;20174;-74
2022/11/29 13:51:24;;;;;;;8.35;3.35;;;;;;;;;;10489581;28;20129;-75
2022/11/29 13:56:35;;;;;;;8.23;3.90;;;;;;;;;;10506346;28;20096;-75
2022/11/29 14:01:49;;;;;;;8.52;3.80;;;;;;;;;;10509337;28;20050;-74
2022/11/29 14:07:01;;;;;;;8.45;4.60;;;;;;;;;;10514064;28;20037;-74
2022/11/29 14:12:17;;;;;;;7.45;4.35;;;;;;;;;;10503407;28;20691;-74
2022/11/29 14:17:46;;;;;;;7.05;3.95;;;;;;;;;;10505647;28;20028;-74
2022/11/29 14:23:03;;;;;;;10.27;4.97;;;;;;;;;;10502050;28;20063;-74
2022/11/29 14:28:27;;;;;;;11.68;5.82;;;;;;;;;;10504390;28;20044;-75
2022/11/29 14:33:48;;;;;;;14.07;6.65;;;;;;;;;;10493368;28;20131;-75
2022/11/29 14:38:54;;;;;;;15.38;7.13;;;;;;;;;;10507769;28;20118;-74
2022/11/29 14:44:16;;;;;;;17.83;7.65;;;;;;;;;;10505560;28;20123;-74
2022/11/29 14:49:21;;;;;;;21.27;10.23;;;;;;;;;;10502440;28;20804;-75
2022/11/29 14:54:23;;;;;;;14.02;6.45;;;;;;;;;;10510887;28;20040;-75
2022/11/29 14:59:46;;;;;;;13.77;5.93;;;;;;;;;;10493539;28;21738;-75
2022/11/29 15:04:51;;;;;;;13.50;6.83;;;;;;;;;;10511213;28;20044;-75
2022/11/29 15:09:56;;;;;;;13.50;6.38;;;;;;;;;;10509401;28;20052;-75
2022/11/29 15:15:04;;;;;;;16.75;7.22;;;;;;;;;;10510064;28;20453;-75
2022/11/29 15:20:17;;;;;;;16.63;7.15;;;;;;;;;;10499676;28;20093;-75
2022/11/29 15:25:20;;;;;;;30.05;11.68;;;;;;;;;;10509986;28;20492;-75
2022/11/29 15:30:32;;;;;;;23.43;7.90;;;;;;;;;;10500960;28;20040;-76
2022/11/29 15:35:35;;;;;;;16.20;7.13;;;;;;;;;;10506107;28;20081;-75
2022/11/29 15:40:50;;;;;;;25.77;9.85;;;;;;;;;;10491606;28;20051;-75
2022/11/29 15:45:55;;;;;;;17.38;7.63;;;;;;;;;;10504993;28;20425;-76
2022/11/29 15:51:01;;;;;;;21.08;8.23;;;;;;;;;;10509977;28;20519;-76
2022/11/29 15:56:09;;;;;;;16.67;7.68;;;;;;;;;;10503176;28;20059;-74
2022/11/29 16:01:15;;;;;;;20.52;8.50;;;;;;;;;;10510443;28;20114;-74
2022/11/29 16:06:21;;;;;;;24.65;7.65;;;;;;;;;;10505689;28;20140;-75
2022/11/29 16:11:26;;;;;;;24.88;9.32;;;;;;;;;;10509670;28;20418;-74
2022/11/29 16:16:34;;;;;;;26.02;9.95;;;;;;;;;;10512999;28;20430;-75
2022/11/29 16:21:37;;;;;;;23.95;8.90;;;;;;;;;;10503005;28;20062;-77
2022/11/29 16:26:41;;;;;;;28.53;10.73;;;;;;;;;;10509435;28;20055;-76
2022/11/29 16:31:50;;;;;;;25.25;10.57;;;;;;;;;;10510221;28;20397;-76
2022/11/29 16:37:00;;;;;;;31.23;11.75;;;;;;;;;;10507996;28;20554;-76
2022/11/29 16:42:07;;;;;;;48.80;18.73;;;;;;;;;;10507203;28;20046;-76
2022/11/29 16:47:12;;;;;;;28.27;11.30;;;;;;;;;;10514041;28;20044;-76
2022/11/29 16:52:23;;;;;;;33.80;12.20;;;;;;;;;;10512435;28;20096;-76
2022/11/29 16:57:26;;;;;;;39.40;13.00;;;;;;;;;;10487799;28;20489;-76
2022/11/29 17:02:30;;;;;;;30.40;11.90;;;;;;;;;;10506856;28;20044;-76
2022/11/29 17:07:35;;;;;;;30.08;11.73;;;;;;;;;;10502793;28;20489;-75
2022/11/29 17:12:37;;;;;;;36.25;13.73;;;;;;;;;;10506777;28;20040;-74
2022/11/29 17:17:49;;;;;;;30.35;11.52;;;;;;;;;;10500528;28;20036;-75
2022/11/29 17:22:51;;;;;;;31.42;12.35;;;;;;;;;;10506443;28;20051;-74
2022/11/29 17:27:54;;;;;;;35.28;12.70;;;;;;;;;;10506073;28;20431;-76
2022/11/29 17:32:58;;;;;;;29.10;9.88;;;;;;;;;;10485635;28;20051;-75
2022/11/29 17:38:01;;;;;;;;;;;;;;;;;;10513921;28;20047;-75
2022/11/29 17:43:04;;;;;;;38.92;11.70;;;;;;;;;;10504875;28;19931;-75
2022/11/29 17:48:08;;;;;;;31.05;11.75;;;;;;;;;;10511225;28;20127;-75
2022/11/29 17:53:10;;;;;;;29.98;11.55;;;;;;;;;;10482698;28;20597;-74
2022/11/29 17:58:13;;;;;;;35.30;12.60;;;;;;;;;;10510345;28;20033;-77
2022/11/29 18:03:17;;;;;;;37.95;12.40;;;;;;;;;;10508309;28;20044;-75
2022/11/29 18:08:20;;;;;;;27.77;10.98;;;;;;;;;;10509718;28;20040;-74
2022/11/29 18:13:22;;;;;;;26.85;10.00;;;;;;;;;;10517901;28;20036;-76
2022/11/29 18:18:26;;;;;;;28.35;10.45;;;;;;;;;;10493880;28;20047;-76
2022/11/29 18:23:30;;;;;;;27.85;10.38;;;;;;;;;;10523395;28;20555;-75
2022/11/29 18:28:38;;;;;;;32.88;12.82;;;;;;;;;;10511173;28;20036;-75
2022/11/29 18:33:42;;;;;;;28.88;12.18;;;;;;;;;;10521623;28;20052;-75
2022/11/29 18:38:45;;;;;;;33.38;11.25;;;;;;;;;;10517535;28;20555;-76
2022/11/29 18:43:49;;;;;;;34.28;12.00;;;;;;;;;;10520709;28;20036;-76
2022/11/29 18:48:54;;;;;;;36.83;12.30;;;;;;;;;;10509023;28;20028;-75
2022/11/29 18:53:57;;;;;;;35.97;11.45;;;;;;;;;;10493215;28;20071;-76
2022/11/29 18:59:01;;;;;;;32.15;11.45;;;;;;;;;;10519385;28;20047;-75
2022/11/29 19:04:06;;;;;;;34.10;11.77;;;;;;;;;;10505259;28;20036;-77
2022/11/29 19:09:11;;;;;;;46.58;14.82;;;;;;;;;;10512849;28;20040;-77
2022/11/29 19:14:14;;;;;;;38.53;13.32;;;;;;;;;;10522738;28;20131;-76
2022/11/29 19:19:27;;;;;;;47.08;14.90;;;;;;;;;;10512438;28;20048;-74
2022/11/29 19:24:30;;;;;;;44.58;14.73;;;;;;;;;;10513107;28;20502;-75
2022/11/29 19:29:33;;;;;;;34.67;11.48;;;;;;;;;;10512458;28;20044;-75
2022/11/29 19:34:47;;;;;;;;;;;;;;;;;;10514609;28;20117;-75
2022/11/29 19:39:51;;;;;;;27.55;10.88;;;;;;;;;;10515121;28;19924;-75
2022/11/29 19:44:55;;;;;;;36.95;12.13;;;;;;;;;;10515650;28;20447;-73
2022/11/29 19:50:17;;;;;;;32.08;11.48;;;;;;;;;;10510184;28;20032;-75
2022/11/29 19:55:21;;;;;;;26.80;10.70;;;;;;;;;;10519268;28;20477;-74
2022/11/29 20:00:24;;;;;;;36.75;13.63;;;;;;;;;;10507120;28;20036;-74
2022/11/29 20:05:26;;;;;;;31.00;11.18;;;;;;;;;;10509117;28;20052;-76
2022/11/29 20:10:31;;;;;;;42.25;13.40;;;;;;;;;;10509733;28;20508;-76
2022/11/29 20:15:35;;;;;;;29.85;11.48;;;;;;;;;;10514100;28;20035;-74
2022/11/29 20:20:38;;;;;;;35.58;11.60;;;;;;;;;;10508186;28;20036;-75
2022/11/29 20:25:47;;;;;;;30.63;10.10;;;;;;;;;;10491104;28;20050;-75
2022/11/29 20:30:50;;;;;;;37.35;13.07;;;;;;;;;;10506846;28;20093;-75
2022/11/29 20:36:00;;;;;;;27.25;10.10;;;;;;;;;;10508462;28;20054;-75
2022/11/29 20:41:08;;;;;;;28.55;10.25;;;;;;;;;;10509861;28;20090;-75
2022/11/29 20:46:24;;;;;;;21.65;8.27;;;;;;;;;;10517901;28;20044;-74
2022/11/29 20:51:31;;;;;;;23.27;9.23;;;;;;;;;;10519609;28;20071;-75
2022/11/29 20:56:37;;;;;;;24.83;8.55;;;;;;;;;;10517164;28;20039;-74
2022/11/29 21:01:40;;;;;;;30.92;10.85;;;;;;;;;;10517842;28;20035;-76
2022/11/29 21:06:44;;;;;;;25.80;9.75;;;;;;;;;;10497473;28;20641;-75
2022/11/29 21:11:48;;;;;;;28.85;10.10;;;;;;;;;;10521592;28;20473;-76
2022/11/29 21:16:51;;;;;;;27.02;8.80;;;;;;;;;;10532045;28;20044;-75
2022/11/29 21:22:01;;;;;;;23.25;8.43;;;;;;;;;;10525121;28;20093;-76
2022/11/29 21:27:12;;;;;;;26.00;9.88;;;;;;;;;;10524099;28;20067;-75
2022/11/29 21:32:19;;;;;;;26.67;10.85;;;;;;;;;;10518532;28;20062;-77
2022/11/29 21:37:24;;;;;;;26.92;9.45;;;;;;;;;;10526561;28;20101;-75
2022/11/29 21:42:28;;;;;;;23.88;8.75;;;;;;;;;;10510029;28;20378;-75
2022/11/29 21:47:31;;;;;;;38.13;11.38;;;;;;;;;;10518282;28;20105;-75
2022/11/29 21:52:34;;;;;;;27.48;9.38;;;;;;;;;;10521976;28;20032;-75
2022/11/29 21:57:38;;;;;;;31.70;9.85;;;;;;;;;;10522626;28;20077;-74
2022/11/29 22:02:41;;;;;;;29.50;10.55;;;;;;;;;;10523422;28;20047;-76
2022/11/29 22:07:44;;;;;;;28.83;9.15;;;;;;;;;;10517416;28;20135;-76
2022/11/29 22:12:48;;;;;;;29.75;10.27;;;;;;;;;;10520724;28;20034;-76
2022/11/29 22:17:55;;;;;;;31.85;11.73;;;;;;;;;;10514147;28;20496;-76
2022/11/29 22:22:57;;;;;;;26.40;9.70;;;;;;;;;;10518731;28;20066;-76
2022/11/29 22:28:02;;;;;;;25.75;8.57;;;;;;;;;;10518041;28;20697;-75
2022/11/29 22:33:04;;;;;;;;;;;;;;;;;;10516884;28;20604;-75
2022/11/29 22:38:11;;;;;;;25.25;8.60;;;;;;;;;;10519132;28;19966;-77
2022/11/29 22:43:15;;;;;;;32.55;9.82;;;;;;;;;;10518782;28;20361;-75
2022/11/29 22:48:18;;;;;;;37.33;11.13;;;;;;;;;;10496970;28;20520;-74
2022/11/29 22:53:21;;;;;;;39.83;10.63;;;;;;;;;;10515904;28;20067;-73
2022/11/29 22:58:25;;;;;;;39.63;10.25;;;;;;;;;;10505729;28;20044;-75
2022/11/29 23:03:28;;;;;;;32.65;10.75;;;;;;;;;;10514833;28;20043;-75
2022/11/29 23:08:30;;;;;;;31.17;11.55;;;;;;;;;;10510253;28;20039;-76
2022/11/29 23:13:35;;;;;;;41.10;11.88;;;;;;;;;;10521015;28;20045;-75
2022/11/29 23:18:38;;;;;;;37.70;11.90;;;;;;;;;;10515911;28;20032;-76
2022/11/29 23:23:42;;;;;;;37.95;13.07;;;;;;;;;;10519939;28;20048;-75
2022/11/29 23:28:46;;;;;;;31.65;9.75;;;;;;;;;;10513377;28;20036;-75
2022/11/29 23:33:48;;;;;;;29.90;9.82;;;;;;;;;;10514824;28;20076;-76
2022/11/29 23:38:51;;;;;;;35.65;10.25;;;;;;;;;;10520970;28;20052;-75
2022/11/29 23:43:58;;;;;;;16.45;6.22;;;;;;;;;;10509224;28;20361;-74
2022/11/29 23:49:01;;;;;;;15.10;6.40;;;;;;;;;;10514762;28;20040;-75
2022/11/29 23:54:03;;;;;;;27.73;8.82;;;;;;;;;;10498559;28;20052;-74
2022/11/29 23:59:08;;;;;;;21.10;5.80;;;;;;;;;;10516377;28;20051;-76
